sensor_id;sensor_type;location;lat;lon;timestamp;P1;durP1;ratioP1;P2;durP2;ratioP2
53261;SDS011;39658;51.090;-1.786;2024-03-02T00:01:31;5.18;;;0.90;;
53261;SDS011;39658;51.090;-1.786;2024-03-02T00:03:58;3.58;;;0.93;;
53261;SDS011;39658;51.090;-1.786;2024-03-02T00:06:25;4.38;;;0.63;;
53261;SDS011;39658;51.090;-1.786;2024-03-02T00:08:53;1.98;;;0.60;;
53261;SDS011;39658;51.090;-1.786;2024-03-02T00:11:24;5.47;;;0.60;;
53261;SDS011;39658;51.090;-1.786;2024-03-02T00:13:52;7.05;;;0.98;;
53261;SDS011;39658;51.090;-1.786;2024-03-02T00:16:19;9.15;;;1.38;;
53261;SDS011;39658;51.090;-1.786;2024-03-02T00:18:47;8.00;;;1.08;;
53261;SDS011;39658;51.090;-1.786;2024-03-02T00:21:15;8.15;;;1.00;;
53261;SDS011;39658;51.090;-1.786;2024-03-02T00:23:45;4.13;;;1.02;;
53261;SDS011;39658;51.090;-1.786;2024-03-02T00:26:12;7.57;;;1.10;;
53261;SDS011;39658;51.090;-1.786;2024-03-02T00:28:40;8.57;;;1.00;;
53261;SDS011;39658;51.090;-1.786;2024-03-02T00:31:09;7.03;;;1.15;;
53261;SDS011;39658;51.090;-1.786;2024-03-02T00:33:37;6.72;;;0.70;;
53261;SDS011;39658;51.090;-1.786;2024-03-02T00:36:10;6.57;;;1.02;;
53261;SDS011;39658;51.090;-1.786;2024-03-02T00:38:42;9.93;;;1.00;;
53261;SDS011;39658;51.090;-1.786;2024-03-02T00:41:15;6.93;;;1.05;;
53261;SDS011;39658;51.090;-1.786;2024-03-02T00:43:44;5.82;;;1.42;;
53261;SDS011;39658;51.090;-1.786;2024-03-02T00:46:15;8.63;;;1.40;;
53261;SDS011;39658;51.090;-1.786;2024-03-02T00:48:47;5.35;;;0.63;;
53261;SDS011;39658;51.090;-1.786;2024-03-02T00:51:18;8.63;;;0.93;;
53261;SDS011;39658;51.090;-1.786;2024-03-02T00:53:45;5.47;;;1.17;;
53261;SDS011;39658;51.090;-1.786;2024-03-02T00:56:12;2.17;;;0.50;;
53261;SDS011;39658;51.090;-1.786;2024-03-02T00:58:40;3.45;;;0.77;;
53261;SDS011;39658;51.090;-1.786;2024-03-02T01:01:06;3.20;;;0.80;;
53261;SDS011;39658;51.090;-1.786;2024-03-02T01:03:34;6.32;;;1.15;;
53261;SDS011;39658;51.090;-1.786;2024-03-02T01:06:02;6.25;;;1.00;;
53261;SDS011;39658;51.090;-1.786;2024-03-02T01:08:31;3.40;;;0.77;;
53261;SDS011;39658;51.090;-1.786;2024-03-02T01:10:58;3.67;;;0.80;;
53261;SDS011;39658;51.090;-1.786;2024-03-02T01:13:24;6.70;;;1.08;;
53261;SDS011;39658;51.090;-1.786;2024-03-02T01:15:50;3.95;;;0.82;;
53261;SDS011;39658;51.090;-1.786;2024-03-02T01:18:18;5.47;;;1.40;;
53261;SDS011;39658;51.090;-1.786;2024-03-02T01:20:45;5.50;;;1.50;;
53261;SDS011;39658;51.090;-1.786;2024-03-02T01:23:11;8.32;;;0.70;;
53261;SDS011;39658;51.090;-1.786;2024-03-02T01:25:40;9.18;;;1.02;;
53261;SDS011;39658;51.090;-1.786;2024-03-02T01:28:07;3.63;;;0.73;;
53261;SDS011;39658;51.090;-1.786;2024-03-02T01:30:33;3.75;;;0.68;;
53261;SDS011;39658;51.090;-1.786;2024-03-02T01:33:00;2.80;;;1.30;;
53261;SDS011;39658;51.090;-1.786;2024-03-02T01:35:27;3.97;;;0.88;;
53261;SDS011;39658;51.090;-1.786;2024-03-02T01:37:54;3.95;;;0.80;;
53261;SDS011;39658;51.090;-1.786;2024-03-02T01:40:21;2.97;;;0.50;;
53261;SDS011;39658;51.090;-1.786;2024-03-02T01:42:52;2.05;;;0.50;;
53261;SDS011;39658;51.090;-1.786;2024-03-02T01:45:19;0.30;;;0.20;;
53261;SDS011;39658;51.090;-1.786;2024-03-02T01:47:47;0.57;;;0.38;;
53261;SDS011;39658;51.090;-1.786;2024-03-02T01:50:13;3.53;;;0.30;;
53261;SDS011;39658;51.090;-1.786;2024-03-02T01:52:41;0.73;;;0.40;;
53261;SDS011;39658;51.090;-1.786;2024-03-02T01:55:09;0.93;;;0.50;;
53261;SDS011;39658;51.090;-1.786;2024-03-02T01:57:36;1.00;;;0.40;;
53261;SDS011;39658;51.090;-1.786;2024-03-02T02:00:05;0.88;;;0.40;;
53261;SDS011;39658;51.090;-1.786;2024-03-02T02:02:35;1.15;;;0.40;;
53261;SDS011;39658;51.090;-1.786;2024-03-02T02:05:02;0.52;;;0.20;;
53261;SDS011;39658;51.090;-1.786;2024-03-02T02:07:29;0.93;;;0.30;;
53261;SDS011;39658;51.090;-1.786;2024-03-02T02:09:56;1.10;;;0.30;;
53261;SDS011;39658;51.090;-1.786;2024-03-02T02:12:23;0.57;;;0.13;;
53261;SDS011;39658;51.090;-1.786;2024-03-02T02:14:50;1.13;;;0.60;;
53261;SDS011;39658;51.090;-1.786;2024-03-02T02:17:18;0.80;;;0.15;;
53261;SDS011;39658;51.090;-1.786;2024-03-02T02:19:45;0.55;;;0.32;;
53261;SDS011;39658;51.090;-1.786;2024-03-02T02:22:14;2.38;;;0.80;;
53261;SDS011;39658;51.090;-1.786;2024-03-02T02:24:41;3.17;;;0.57;;
53261;SDS011;39658;51.090;-1.786;2024-03-02T02:27:08;0.50;;;0.10;;
53261;SDS011;39658;51.090;-1.786;2024-03-02T02:29:35;0.40;;;0.30;;
53261;SDS011;39658;51.090;-1.786;2024-03-02T02:32:02;1.17;;;0.30;;
53261;SDS011;39658;51.090;-1.786;2024-03-02T02:34:29;2.60;;;0.25;;
53261;SDS011;39658;51.090;-1.786;2024-03-02T02:36:56;8.65;;;0.60;;
53261;SDS011;39658;51.090;-1.786;2024-03-02T02:39:24;0.40;;;0.30;;
53261;SDS011;39658;51.090;-1.786;2024-03-02T02:41:51;2.67;;;1.13;;
53261;SDS011;39658;51.090;-1.786;2024-03-02T02:44:18;1.77;;;0.47;;
53261;SDS011;39658;51.090;-1.786;2024-03-02T02:46:44;4.07;;;0.30;;
53261;SDS011;39658;51.090;-1.786;2024-03-02T02:49:11;2.05;;;0.60;;
53261;SDS011;39658;51.090;-1.786;2024-03-02T02:51:38;4.55;;;0.57;;
53261;SDS011;39658;51.090;-1.786;2024-03-02T02:54:05;3.75;;;0.50;;
53261;SDS011;39658;51.090;-1.786;2024-03-02T02:56:33;2.55;;;0.52;;
53261;SDS011;39658;51.090;-1.786;2024-03-02T02:59:00;6.72;;;0.55;;
53261;SDS011;39658;51.090;-1.786;2024-03-02T03:01:26;1.92;;;0.40;;
53261;SDS011;39658;51.090;-1.786;2024-03-02T03:03:53;1.58;;;0.57;;
53261;SDS011;39658;51.090;-1.786;2024-03-02T03:06:20;2.90;;;0.77;;
53261;SDS011;39658;51.090;-1.786;2024-03-02T03:08:47;2.63;;;0.43;;
53261;SDS011;39658;51.090;-1.786;2024-03-02T03:11:14;3.05;;;0.52;;
53261;SDS011;39658;51.090;-1.786;2024-03-02T03:13:42;9.60;;;1.40;;
53261;SDS011;39658;51.090;-1.786;2024-03-02T03:16:09;5.15;;;1.00;;
53261;SDS011;39658;51.090;-1.786;2024-03-02T03:18:36;3.42;;;1.17;;
53261;SDS011;39658;51.090;-1.786;2024-03-02T03:21:03;4.68;;;1.20;;
53261;SDS011;39658;51.090;-1.786;2024-03-02T03:23:30;4.38;;;1.38;;
53261;SDS011;39658;51.090;-1.786;2024-03-02T03:25:57;7.90;;;1.42;;
53261;SDS011;39658;51.090;-1.786;2024-03-02T03:28:23;13.52;;;1.83;;
53261;SDS011;39658;51.090;-1.786;2024-03-02T03:30:52;7.22;;;1.30;;
53261;SDS011;39658;51.090;-1.786;2024-03-02T03:33:18;14.57;;;1.75;;
53261;SDS011;39658;51.090;-1.786;2024-03-02T03:35:45;15.75;;;2.50;;
53261;SDS011;39658;51.090;-1.786;2024-03-02T03:38:13;5.43;;;1.15;;
53261;SDS011;39658;51.090;-1.786;2024-03-02T03:40:40;1.33;;;0.68;;
53261;SDS011;39658;51.090;-1.786;2024-03-02T03:43:07;0.57;;;0.20;;
53261;SDS011;39658;51.090;-1.786;2024-03-02T03:45:33;1.75;;;0.30;;
53261;SDS011;39658;51.090;-1.786;2024-03-02T03:48:02;3.33;;;0.30;;
53261;SDS011;39658;51.090;-1.786;2024-03-02T03:50:29;3.88;;;0.68;;
53261;SDS011;39658;51.090;-1.786;2024-03-02T03:52:56;1.05;;;0.40;;
53261;SDS011;39658;51.090;-1.786;2024-03-02T03:55:22;1.00;;;0.20;;
53261;SDS011;39658;51.090;-1.786;2024-03-02T03:57:49;0.10;;;0.10;;
53261;SDS011;39658;51.090;-1.786;2024-03-02T04:00:16;1.23;;;0.40;;
53261;SDS011;39658;51.090;-1.786;2024-03-02T04:02:43;0.60;;;0.15;;
53261;SDS011;39658;51.090;-1.786;2024-03-02T04:05:11;1.95;;;0.47;;
53261;SDS011;39658;51.090;-1.786;2024-03-02T04:07:38;2.88;;;0.50;;
53261;SDS011;39658;51.090;-1.786;2024-03-02T04:10:07;3.13;;;0.25;;
53261;SDS011;39658;51.090;-1.786;2024-03-02T04:12:35;1.48;;;0.40;;
53261;SDS011;39658;51.090;-1.786;2024-03-02T04:15:04;4.13;;;0.40;;
53261;SDS011;39658;51.090;-1.786;2024-03-02T04:17:31;4.07;;;0.45;;
53261;SDS011;39658;51.090;-1.786;2024-03-02T04:20:01;1.95;;;0.73;;
53261;SDS011;39658;51.090;-1.786;2024-03-02T04:22:32;2.33;;;0.52;;
53261;SDS011;39658;51.090;-1.786;2024-03-02T04:24:59;3.05;;;0.47;;
53261;SDS011;39658;51.090;-1.786;2024-03-02T04:27:26;5.93;;;0.57;;
53261;SDS011;39658;51.090;-1.786;2024-03-02T04:29:53;2.88;;;0.30;;
53261;SDS011;39658;51.090;-1.786;2024-03-02T04:32:20;3.70;;;0.63;;
53261;SDS011;39658;51.090;-1.786;2024-03-02T04:34:46;5.22;;;0.60;;
53261;SDS011;39658;51.090;-1.786;2024-03-02T04:37:13;6.70;;;0.57;;
53261;SDS011;39658;51.090;-1.786;2024-03-02T04:39:42;7.97;;;0.80;;
53261;SDS011;39658;51.090;-1.786;2024-03-02T04:42:09;3.78;;;0.70;;
53261;SDS011;39658;51.090;-1.786;2024-03-02T04:44:35;2.50;;;0.70;;
53261;SDS011;39658;51.090;-1.786;2024-03-02T04:47:03;7.68;;;0.60;;
53261;SDS011;39658;51.090;-1.786;2024-03-02T04:49:30;7.63;;;0.57;;
53261;SDS011;39658;51.090;-1.786;2024-03-02T04:51:57;2.55;;;0.70;;
53261;SDS011;39658;51.090;-1.786;2024-03-02T04:54:23;3.45;;;0.90;;
53261;SDS011;39658;51.090;-1.786;2024-03-02T04:56:52;11.95;;;1.20;;
53261;SDS011;39658;51.090;-1.786;2024-03-02T04:59:18;7.18;;;0.68;;
53261;SDS011;39658;51.090;-1.786;2024-03-02T05:01:46;2.90;;;0.57;;
53261;SDS011;39658;51.090;-1.786;2024-03-02T05:04:13;5.25;;;0.85;;
53261;SDS011;39658;51.090;-1.786;2024-03-02T05:06:40;2.53;;;0.63;;
53261;SDS011;39658;51.090;-1.786;2024-03-02T05:09:07;7.25;;;1.05;;
53261;SDS011;39658;51.090;-1.786;2024-03-02T05:11:34;4.45;;;0.63;;
53261;SDS011;39658;51.090;-1.786;2024-03-02T05:14:37;2.42;;;0.98;;
53261;SDS011;39658;51.090;-1.786;2024-03-02T05:17:03;4.35;;;0.90;;
53261;SDS011;39658;51.090;-1.786;2024-03-02T05:19:30;4.70;;;1.10;;
53261;SDS011;39658;51.090;-1.786;2024-03-02T05:21:57;2.17;;;0.57;;
53261;SDS011;39658;51.090;-1.786;2024-03-02T05:24:24;3.35;;;0.50;;
53261;SDS011;39658;51.090;-1.786;2024-03-02T05:26:52;0.73;;;0.50;;
53261;SDS011;39658;51.090;-1.786;2024-03-02T05:29:19;2.72;;;1.00;;
53261;SDS011;39658;51.090;-1.786;2024-03-02T05:31:47;4.15;;;0.80;;
53261;SDS011;39658;51.090;-1.786;2024-03-02T05:34:13;7.65;;;2.50;;
53261;SDS011;39658;51.090;-1.786;2024-03-02T05:36:40;6.50;;;2.03;;
53261;SDS011;39658;51.090;-1.786;2024-03-02T05:39:07;6.68;;;1.42;;
53261;SDS011;39658;51.090;-1.786;2024-03-02T05:41:35;4.65;;;1.67;;
53261;SDS011;39658;51.090;-1.786;2024-03-02T05:44:03;3.17;;;0.80;;
53261;SDS011;39658;51.090;-1.786;2024-03-02T05:46:30;2.72;;;0.90;;
53261;SDS011;39658;51.090;-1.786;2024-03-02T05:48:58;2.35;;;0.85;;
53261;SDS011;39658;51.090;-1.786;2024-03-02T05:51:25;3.30;;;1.15;;
53261;SDS011;39658;51.090;-1.786;2024-03-02T05:53:52;4.35;;;1.10;;
53261;SDS011;39658;51.090;-1.786;2024-03-02T05:56:19;4.03;;;0.80;;
53261;SDS011;39658;51.090;-1.786;2024-03-02T05:58:45;4.88;;;1.20;;
53261;SDS011;39658;51.090;-1.786;2024-03-02T06:01:23;2.30;;;0.50;;
53261;SDS011;39658;51.090;-1.786;2024-03-02T06:03:53;2.00;;;0.55;;
53261;SDS011;39658;51.090;-1.786;2024-03-02T06:06:22;3.10;;;0.95;;
53261;SDS011;39658;51.090;-1.786;2024-03-02T06:08:49;2.05;;;0.73;;
53261;SDS011;39658;51.090;-1.786;2024-03-02T06:11:16;1.67;;;0.52;;
53261;SDS011;39658;51.090;-1.786;2024-03-02T06:13:43;2.83;;;0.82;;
53261;SDS011;39658;51.090;-1.786;2024-03-02T06:16:10;1.90;;;0.88;;
53261;SDS011;39658;51.090;-1.786;2024-03-02T06:18:37;1.85;;;0.70;;
53261;SDS011;39658;51.090;-1.786;2024-03-02T06:21:04;2.40;;;0.77;;
53261;SDS011;39658;51.090;-1.786;2024-03-02T06:23:32;3.38;;;0.70;;
53261;SDS011;39658;51.090;-1.786;2024-03-02T06:25:59;2.08;;;0.68;;
53261;SDS011;39658;51.090;-1.786;2024-03-02T06:28:27;2.55;;;0.55;;
53261;SDS011;39658;51.090;-1.786;2024-03-02T06:30:54;1.83;;;0.68;;
53261;SDS011;39658;51.090;-1.786;2024-03-02T06:33:21;2.78;;;1.02;;
53261;SDS011;39658;51.090;-1.786;2024-03-02T06:35:47;3.08;;;0.85;;
53261;SDS011;39658;51.090;-1.786;2024-03-02T06:38:15;2.25;;;0.73;;
53261;SDS011;39658;51.090;-1.786;2024-03-02T06:40:43;0.85;;;0.38;;
53261;SDS011;39658;51.090;-1.786;2024-03-02T06:43:10;0.82;;;0.30;;
53261;SDS011;39658;51.090;-1.786;2024-03-02T06:45:37;1.80;;;0.30;;
53261;SDS011;39658;51.090;-1.786;2024-03-02T06:48:04;1.63;;;0.73;;
53261;SDS011;39658;51.090;-1.786;2024-03-02T06:50:31;1.15;;;0.50;;
53261;SDS011;39658;51.090;-1.786;2024-03-02T06:52:58;1.67;;;0.75;;
53261;SDS011;39658;51.090;-1.786;2024-03-02T06:55:24;1.35;;;0.50;;
53261;SDS011;39658;51.090;-1.786;2024-03-02T06:57:53;1.70;;;0.50;;
53261;SDS011;39658;51.090;-1.786;2024-03-02T07:00:20;1.15;;;0.65;;
53261;SDS011;39658;51.090;-1.786;2024-03-02T07:02:47;1.88;;;0.55;;
53261;SDS011;39658;51.090;-1.786;2024-03-02T07:05:14;2.00;;;0.50;;
53261;SDS011;39658;51.090;-1.786;2024-03-02T07:07:41;2.28;;;0.90;;
53261;SDS011;39658;51.090;-1.786;2024-03-02T07:10:07;1.20;;;0.40;;
53261;SDS011;39658;51.090;-1.786;2024-03-02T07:12:34;2.83;;;1.00;;
53261;SDS011;39658;51.090;-1.786;2024-03-02T07:15:03;1.98;;;0.60;;
53261;SDS011;39658;51.090;-1.786;2024-03-02T07:17:50;2.33;;;0.80;;
53261;SDS011;39658;51.090;-1.786;2024-03-02T07:20:17;3.55;;;0.85;;
53261;SDS011;39658;51.090;-1.786;2024-03-02T07:22:43;2.20;;;0.70;;
53261;SDS011;39658;51.090;-1.786;2024-03-02T07:25:10;3.45;;;0.88;;
53261;SDS011;39658;51.090;-1.786;2024-03-02T07:27:37;2.33;;;0.80;;
53261;SDS011;39658;51.090;-1.786;2024-03-02T07:30:06;3.17;;;1.00;;
53261;SDS011;39658;51.090;-1.786;2024-03-02T07:32:34;3.45;;;0.85;;
53261;SDS011;39658;51.090;-1.786;2024-03-02T07:35:00;1.98;;;0.70;;
53261;SDS011;39658;51.090;-1.786;2024-03-02T07:37:28;2.38;;;0.70;;
53261;SDS011;39658;51.090;-1.786;2024-03-02T07:39:55;2.47;;;0.85;;
53261;SDS011;39658;51.090;-1.786;2024-03-02T07:42:22;3.58;;;1.20;;
53261;SDS011;39658;51.090;-1.786;2024-03-02T07:44:49;3.00;;;0.80;;
53261;SDS011;39658;51.090;-1.786;2024-03-02T07:47:17;1.83;;;0.60;;
53261;SDS011;39658;51.090;-1.786;2024-03-02T07:49:44;1.98;;;0.68;;
53261;SDS011;39658;51.090;-1.786;2024-03-02T07:52:11;2.10;;;0.73;;
53261;SDS011;39658;51.090;-1.786;2024-03-02T07:54:38;2.75;;;0.90;;
53261;SDS011;39658;51.090;-1.786;2024-03-02T07:57:05;2.15;;;0.70;;
53261;SDS011;39658;51.090;-1.786;2024-03-02T07:59:32;1.52;;;0.60;;
53261;SDS011;39658;51.090;-1.786;2024-03-02T08:01:58;2.17;;;0.60;;
53261;SDS011;39658;51.090;-1.786;2024-03-02T08:04:27;2.95;;;1.27;;
53261;SDS011;39658;51.090;-1.786;2024-03-02T08:06:54;3.25;;;1.30;;
53261;SDS011;39658;51.090;-1.786;2024-03-02T08:09:21;3.65;;;1.17;;
53261;SDS011;39658;51.090;-1.786;2024-03-02T08:11:47;3.00;;;1.98;;
53261;SDS011;39658;51.090;-1.786;2024-03-02T08:14:14;3.13;;;1.20;;
53261;SDS011;39658;51.090;-1.786;2024-03-02T08:16:41;2.75;;;0.70;;
53261;SDS011;39658;51.090;-1.786;2024-03-02T08:19:08;3.00;;;1.05;;
53261;SDS011;39658;51.090;-1.786;2024-03-02T08:21:36;4.20;;;1.52;;
53261;SDS011;39658;51.090;-1.786;2024-03-02T08:24:03;2.28;;;0.77;;
53261;SDS011;39658;51.090;-1.786;2024-03-02T08:26:31;4.32;;;1.45;;
53261;SDS011;39658;51.090;-1.786;2024-03-02T08:28:57;5.20;;;1.40;;
53261;SDS011;39658;51.090;-1.786;2024-03-02T08:31:26;3.30;;;1.13;;
53261;SDS011;39658;51.090;-1.786;2024-03-02T08:33:53;4.28;;;1.13;;
53261;SDS011;39658;51.090;-1.786;2024-03-02T08:36:20;4.95;;;1.80;;
53261;SDS011;39658;51.090;-1.786;2024-03-02T08:38:49;5.00;;;1.38;;
53261;SDS011;39658;51.090;-1.786;2024-03-02T08:41:16;6.15;;;1.25;;
53261;SDS011;39658;51.090;-1.786;2024-03-02T08:43:43;6.03;;;1.60;;
53261;SDS011;39658;51.090;-1.786;2024-03-02T08:46:10;6.53;;;1.80;;
53261;SDS011;39658;51.090;-1.786;2024-03-02T08:48:37;6.95;;;2.38;;
53261;SDS011;39658;51.090;-1.786;2024-03-02T08:51:04;6.60;;;2.72;;
53261;SDS011;39658;51.090;-1.786;2024-03-02T08:53:33;7.82;;;2.30;;
53261;SDS011;39658;51.090;-1.786;2024-03-02T08:56:01;7.60;;;1.90;;
53261;SDS011;39658;51.090;-1.786;2024-03-02T08:58:30;6.68;;;2.58;;
53261;SDS011;39658;51.090;-1.786;2024-03-02T09:00:57;8.55;;;2.53;;
53261;SDS011;39658;51.090;-1.786;2024-03-02T09:03:24;4.68;;;1.63;;
53261;SDS011;39658;51.090;-1.786;2024-03-02T09:05:51;7.50;;;2.10;;
53261;SDS011;39658;51.090;-1.786;2024-03-02T09:08:18;8.82;;;2.08;;
53261;SDS011;39658;51.090;-1.786;2024-03-02T09:10:45;7.35;;;2.13;;
53261;SDS011;39658;51.090;-1.786;2024-03-02T09:13:13;6.28;;;2.20;;
53261;SDS011;39658;51.090;-1.786;2024-03-02T09:15:40;6.85;;;2.17;;
53261;SDS011;39658;51.090;-1.786;2024-03-02T09:18:06;7.38;;;2.38;;
53261;SDS011;39658;51.090;-1.786;2024-03-02T09:20:32;5.88;;;2.13;;
53261;SDS011;39658;51.090;-1.786;2024-03-02T09:22:59;7.13;;;2.38;;
53261;SDS011;39658;51.090;-1.786;2024-03-02T09:25:26;6.13;;;2.55;;
53261;SDS011;39658;51.090;-1.786;2024-03-02T09:27:53;7.65;;;3.08;;
53261;SDS011;39658;51.090;-1.786;2024-03-02T09:30:21;5.95;;;1.98;;
53261;SDS011;39658;51.090;-1.786;2024-03-02T09:32:48;6.70;;;2.50;;
53261;SDS011;39658;51.090;-1.786;2024-03-02T09:35:14;6.70;;;2.10;;
53261;SDS011;39658;51.090;-1.786;2024-03-02T09:37:41;5.60;;;2.10;;
53261;SDS011;39658;51.090;-1.786;2024-03-02T09:40:09;5.35;;;1.90;;
53261;SDS011;39658;51.090;-1.786;2024-03-02T09:42:36;7.90;;;2.33;;
53261;SDS011;39658;51.090;-1.786;2024-03-02T09:45:04;8.05;;;2.60;;
53261;SDS011;39658;51.090;-1.786;2024-03-02T09:47:34;7.40;;;2.35;;
53261;SDS011;39658;51.090;-1.786;2024-03-02T09:50:00;7.28;;;2.50;;
53261;SDS011;39658;51.090;-1.786;2024-03-02T09:52:29;6.07;;;2.40;;
53261;SDS011;39658;51.090;-1.786;2024-03-02T09:54:57;6.70;;;2.33;;
53261;SDS011;39658;51.090;-1.786;2024-03-02T09:57:24;5.18;;;1.98;;
53261;SDS011;39658;51.090;-1.786;2024-03-02T09:59:51;5.95;;;2.78;;
53261;SDS011;39658;51.090;-1.786;2024-03-02T10:02:17;3.85;;;2.22;;
53261;SDS011;39658;51.090;-1.786;2024-03-02T10:04:47;4.15;;;1.60;;
53261;SDS011;39658;51.090;-1.786;2024-03-02T10:07:15;5.35;;;1.60;;
53261;SDS011;39658;51.090;-1.786;2024-03-02T10:09:44;4.00;;;1.48;;
53261;SDS011;39658;51.090;-1.786;2024-03-02T10:12:11;6.38;;;1.63;;
53261;SDS011;39658;51.090;-1.786;2024-03-02T10:14:39;3.95;;;1.77;;
53261;SDS011;39658;51.090;-1.786;2024-03-02T10:17:07;5.03;;;1.90;;
53261;SDS011;39658;51.090;-1.786;2024-03-02T10:19:35;1.63;;;0.70;;
53261;SDS011;39658;51.090;-1.786;2024-03-02T10:22:05;4.90;;;1.55;;
53261;SDS011;39658;51.090;-1.786;2024-03-02T10:24:37;3.33;;;1.20;;
53261;SDS011;39658;51.090;-1.786;2024-03-02T10:27:08;2.88;;;1.35;;
53261;SDS011;39658;51.090;-1.786;2024-03-02T10:29:37;3.53;;;1.23;;
53261;SDS011;39658;51.090;-1.786;2024-03-02T10:32:05;2.03;;;0.70;;
53261;SDS011;39658;51.090;-1.786;2024-03-02T10:34:32;3.38;;;1.23;;
53261;SDS011;39658;51.090;-1.786;2024-03-02T10:36:59;3.22;;;1.40;;
53261;SDS011;39658;51.090;-1.786;2024-03-02T10:39:28;3.78;;;2.08;;
53261;SDS011;39658;51.090;-1.786;2024-03-02T10:41:57;3.88;;;1.73;;
53261;SDS011;39658;51.090;-1.786;2024-03-02T10:44:24;2.70;;;0.90;;
53261;SDS011;39658;51.090;-1.786;2024-03-02T10:46:52;3.00;;;0.98;;
53261;SDS011;39658;51.090;-1.786;2024-03-02T10:49:22;3.25;;;1.20;;
53261;SDS011;39658;51.090;-1.786;2024-03-02T10:51:50;4.38;;;1.67;;
53261;SDS011;39658;51.090;-1.786;2024-03-02T10:54:17;3.65;;;1.42;;
53261;SDS011;39658;51.090;-1.786;2024-03-02T10:56:52;5.20;;;1.20;;
53261;SDS011;39658;51.090;-1.786;2024-03-02T10:59:22;3.28;;;1.00;;
53261;SDS011;39658;51.090;-1.786;2024-03-02T11:01:55;3.90;;;1.02;;
53261;SDS011;39658;51.090;-1.786;2024-03-02T11:04:24;3.55;;;0.95;;
53261;SDS011;39658;51.090;-1.786;2024-03-02T11:06:52;5.00;;;1.00;;
53261;SDS011;39658;51.090;-1.786;2024-03-02T11:09:25;4.15;;;1.23;;
53261;SDS011;39658;51.090;-1.786;2024-03-02T11:11:59;3.17;;;1.40;;
53261;SDS011;39658;51.090;-1.786;2024-03-02T11:14:29;2.45;;;0.88;;
53261;SDS011;39658;51.090;-1.786;2024-03-02T11:16:58;3.75;;;1.23;;
53261;SDS011;39658;51.090;-1.786;2024-03-02T11:19:28;3.38;;;1.40;;
53261;SDS011;39658;51.090;-1.786;2024-03-02T11:22:00;3.67;;;1.30;;
53261;SDS011;39658;51.090;-1.786;2024-03-02T11:24:30;4.07;;;1.60;;
53261;SDS011;39658;51.090;-1.786;2024-03-02T11:26:59;4.90;;;1.45;;
53261;SDS011;39658;51.090;-1.786;2024-03-02T11:32:15;2.45;;;1.00;;
53261;SDS011;39658;51.090;-1.786;2024-03-02T11:34:49;3.42;;;1.63;;
53261;SDS011;39658;51.090;-1.786;2024-03-02T11:37:16;4.63;;;2.15;;
53261;SDS011;39658;51.090;-1.786;2024-03-02T11:39:45;4.78;;;1.50;;
53261;SDS011;39658;51.090;-1.786;2024-03-02T11:42:14;3.85;;;1.92;;
53261;SDS011;39658;51.090;-1.786;2024-03-02T11:44:42;5.78;;;1.92;;
53261;SDS011;39658;51.090;-1.786;2024-03-02T11:47:12;3.97;;;1.40;;
53261;SDS011;39658;51.090;-1.786;2024-03-02T11:49:43;4.35;;;1.40;;
53261;SDS011;39658;51.090;-1.786;2024-03-02T11:52:11;3.03;;;1.10;;
53261;SDS011;39658;51.090;-1.786;2024-03-02T11:54:40;4.68;;;2.35;;
53261;SDS011;39658;51.090;-1.786;2024-03-02T11:57:11;4.60;;;1.92;;
53261;SDS011;39658;51.090;-1.786;2024-03-02T11:59:40;4.00;;;1.55;;
53261;SDS011;39658;51.090;-1.786;2024-03-02T12:02:13;3.75;;;1.27;;
53261;SDS011;39658;51.090;-1.786;2024-03-02T12:04:42;3.60;;;1.40;;
53261;SDS011;39658;51.090;-1.786;2024-03-02T12:07:10;4.85;;;1.60;;
53261;SDS011;39658;51.090;-1.786;2024-03-02T12:09:36;2.33;;;0.90;;
53261;SDS011;39658;51.090;-1.786;2024-03-02T12:12:04;3.70;;;1.83;;
53261;SDS011;39658;51.090;-1.786;2024-03-02T12:14:32;4.70;;;2.17;;
53261;SDS011;39658;51.090;-1.786;2024-03-02T12:17:01;4.65;;;1.80;;
53261;SDS011;39658;51.090;-1.786;2024-03-02T12:19:28;4.07;;;1.60;;
53261;SDS011;39658;51.090;-1.786;2024-03-02T12:21:56;6.10;;;2.45;;
53261;SDS011;39658;51.090;-1.786;2024-03-02T12:24:23;3.83;;;1.98;;
53261;SDS011;39658;51.090;-1.786;2024-03-02T12:26:50;9.20;;;2.47;;
53261;SDS011;39658;51.090;-1.786;2024-03-02T12:29:18;8.18;;;3.17;;
53261;SDS011;39658;51.090;-1.786;2024-03-02T12:31:47;7.80;;;2.90;;
53261;SDS011;39658;51.090;-1.786;2024-03-02T12:34:17;6.65;;;2.72;;
53261;SDS011;39658;51.090;-1.786;2024-03-02T12:36:44;5.70;;;2.58;;
53261;SDS011;39658;51.090;-1.786;2024-03-02T12:39:14;4.97;;;2.42;;
53261;SDS011;39658;51.090;-1.786;2024-03-02T12:41:41;6.72;;;3.25;;
53261;SDS011;39658;51.090;-1.786;2024-03-02T12:44:08;7.00;;;3.38;;
53261;SDS011;39658;51.090;-1.786;2024-03-02T12:46:35;6.78;;;2.40;;
53261;SDS011;39658;51.090;-1.786;2024-03-02T12:49:05;5.85;;;3.00;;
53261;SDS011;39658;51.090;-1.786;2024-03-02T12:51:36;6.25;;;2.90;;
53261;SDS011;39658;51.090;-1.786;2024-03-02T12:54:03;5.60;;;2.83;;
53261;SDS011;39658;51.090;-1.786;2024-03-02T12:56:30;5.28;;;1.77;;
53261;SDS011;39658;51.090;-1.786;2024-03-02T12:58:58;5.53;;;2.45;;
53261;SDS011;39658;51.090;-1.786;2024-03-02T13:01:25;4.32;;;2.50;;
53261;SDS011;39658;51.090;-1.786;2024-03-02T13:03:52;7.25;;;2.47;;
53261;SDS011;39658;51.090;-1.786;2024-03-02T13:06:21;11.65;;;3.15;;
53261;SDS011;39658;51.090;-1.786;2024-03-02T13:08:49;3.50;;;1.88;;
53261;SDS011;39658;51.090;-1.786;2024-03-02T13:11:16;4.45;;;2.25;;
53261;SDS011;39658;51.090;-1.786;2024-03-02T13:13:43;3.83;;;1.73;;
53261;SDS011;39658;51.090;-1.786;2024-03-02T13:16:10;3.60;;;1.42;;
53261;SDS011;39658;51.090;-1.786;2024-03-02T13:18:38;2.83;;;1.48;;
53261;SDS011;39658;51.090;-1.786;2024-03-02T13:21:06;2.95;;;1.35;;
53261;SDS011;39658;51.090;-1.786;2024-03-02T13:23:33;2.05;;;0.82;;
53261;SDS011;39658;51.090;-1.786;2024-03-02T13:26:01;7.70;;;2.05;;
53261;SDS011;39658;51.090;-1.786;2024-03-02T13:28:29;5.60;;;1.60;;
53261;SDS011;39658;51.090;-1.786;2024-03-02T13:30:56;4.95;;;1.20;;
53261;SDS011;39658;51.090;-1.786;2024-03-02T13:33:23;7.22;;;1.80;;
53261;SDS011;39658;51.090;-1.786;2024-03-02T13:35:50;7.03;;;1.38;;
53261;SDS011;39658;51.090;-1.786;2024-03-02T13:38:17;9.02;;;2.70;;
53261;SDS011;39658;51.090;-1.786;2024-03-02T13:40:45;2.40;;;1.00;;
53261;SDS011;39658;51.090;-1.786;2024-03-02T13:43:14;5.35;;;1.67;;
53261;SDS011;39658;51.090;-1.786;2024-03-02T13:45:41;3.33;;;1.02;;
53261;SDS011;39658;51.090;-1.786;2024-03-02T13:48:09;4.30;;;1.67;;
53261;SDS011;39658;51.090;-1.786;2024-03-02T13:50:36;1.67;;;0.68;;
53261;SDS011;39658;51.090;-1.786;2024-03-02T13:53:03;4.43;;;1.50;;
53261;SDS011;39658;51.090;-1.786;2024-03-02T13:55:31;3.72;;;1.55;;
53261;SDS011;39658;51.090;-1.786;2024-03-02T13:57:58;2.72;;;1.00;;
53261;SDS011;39658;51.090;-1.786;2024-03-02T14:00:26;2.30;;;0.90;;
53261;SDS011;39658;51.090;-1.786;2024-03-02T14:02:54;2.63;;;0.82;;
53261;SDS011;39658;51.090;-1.786;2024-03-02T14:05:21;0.98;;;0.40;;
53261;SDS011;39658;51.090;-1.786;2024-03-02T14:07:48;2.58;;;0.80;;
53261;SDS011;39658;51.090;-1.786;2024-03-02T14:10:14;2.53;;;0.88;;
53261;SDS011;39658;51.090;-1.786;2024-03-02T14:12:43;3.55;;;1.02;;
53261;SDS011;39658;51.090;-1.786;2024-03-02T14:15:09;2.17;;;0.63;;
53261;SDS011;39658;51.090;-1.786;2024-03-02T14:17:38;3.75;;;0.77;;
53261;SDS011;39658;51.090;-1.786;2024-03-02T14:20:05;2.30;;;0.75;;
53261;SDS011;39658;51.090;-1.786;2024-03-02T14:22:35;2.28;;;0.68;;
53261;SDS011;39658;51.090;-1.786;2024-03-02T14:25:02;5.07;;;0.77;;
53261;SDS011;39658;51.090;-1.786;2024-03-02T14:27:29;2.38;;;0.52;;
53261;SDS011;39658;51.090;-1.786;2024-03-02T14:29:56;5.22;;;0.90;;
53261;SDS011;39658;51.090;-1.786;2024-03-02T14:32:23;1.23;;;0.57;;
53261;SDS011;39658;51.090;-1.786;2024-03-02T14:34:51;1.30;;;0.57;;
53261;SDS011;39658;51.090;-1.786;2024-03-02T14:37:18;5.20;;;1.80;;
53261;SDS011;39658;51.090;-1.786;2024-03-02T14:39:45;2.92;;;1.20;;